Time;durP1;ratioP1;P1;durP2;ratioP2;P2;SDS_P1;SDS_P2;PMS_P1;PMS_P2;Temp;Humidity;BMP_temperature;BMP_pressure;BME280_temperature;BME280_humidity;BME280_pressure;Samples;Min_cycle;Max_cycle;Signal;HPM_P1;HPM_P2
2023/02/21 12:03:56;;;;;;;11.70;5.50;;;;;;;5.70;67.51;97306.63;79915;1304;3013078;-61
2023/02/21 12:06:27;;;;;;;11.20;4.60;;;;;;;5.07;71.45;97336.08;77676;1306;3055138;-61
2023/02/21 12:09:18;;;;;;;;;;;;;;;4.88;74.20;97308.82;79104;1306;3011641;-59
2023/02/21 12:11:58;;;;;;;10.10;3.50;;;;;;;4.69;75.31;97296.45;77762;1303;3052966;-60
2023/02/21 12:14:41;;;;;;;9.50;3.50;;;;;;;4.66;76.05;97286.07;77720;1305;3053234;-60
2023/02/21 12:17:25;;;;;;;6.80;3.40;;;;;;;4.70;76.22;97285.96;76131;1303;3069891;-60
2023/02/21 12:20:05;;;;;;;9.20;2.80;;;;;;;4.74;77.47;97278.11;77982;1303;3051274;-60
2023/02/21 12:22:45;;;;;;;6.40;3.40;;;;;;;4.81;76.63;97282.11;77810;1303;3057288;-60
2023/02/21 12:25:40;;;;;;;4.40;2.70;;;;;;;4.83;76.63;97270.30;77991;1297;3048855;-60
2023/02/21 12:28:15;;;;;;;8.40;2.70;;;;;;;4.91;76.09;97265.92;78201;1299;3053291;-60
2023/02/21 12:30:56;;;;;;;8.60;2.40;;;;;;;5.10;75.59;97266.14;78140;1298;3050888;-60
2023/02/21 12:33:33;;;;;;;5.40;2.20;;;;;;;5.18;74.89;97282.69;78335;1294;3051848;-61
2023/02/21 12:36:27;;;;;;;5.80;2.00;;;;;;;5.22;75.34;97277.38;78048;1299;3051980;-60
2023/02/21 12:39:32;;;;;;;7.80;2.80;;;;;;;5.46;74.81;97271.64;78074;1298;3069435;-60
2023/02/21 12:42:17;;;;;;;5.30;3.10;;;;;;;5.96;72.76;97278.27;77891;1295;3049943;-60
2023/02/21 12:45:18;;;;;;;9.30;3.90;;;;;;;6.15;70.96;97281.40;78266;1296;3056943;-59
2023/02/21 12:47:54;;;;;;;9.70;4.90;;;;;;;6.45;70.57;97282.70;78218;1299;3050419;-59
2023/02/21 12:50:31;;;;;;;11.50;4.90;;;;;;;6.58;70.03;97282.77;78093;1300;3052749;-60
2023/02/21 12:53:11;;;;;;;17.40;5.50;;;;;;;6.64;69.74;97269.04;78040;1300;3051411;-60
2023/02/21 12:55:44;;;;;;;11.10;4.90;;;;;;;6.84;69.84;97267.13;78233;1299;3053035;-60
2023/02/21 12:58:22;;;;;;;11.00;4.80;;;;;;;6.90;68.51;97273.77;79491;1294;3013275;-60
2023/02/21 13:00:59;;;;;;;9.60;4.10;;;;;;;7.06;67.97;97268.98;78213;1299;3069437;-60
2023/02/21 13:03:39;;;;;;;7.60;3.40;;;;;;;7.14;67.82;97267.33;78234;1294;3051204;-62
2023/02/21 13:06:22;;;;;;;10.90;3.50;;;;;;;7.29;67.57;97265.42;78086;1297;3057681;-60
2023/02/21 13:09:28;;;;;;;8.50;3.10;;;;;;;7.20;68.62;97266.11;78047;1298;3050371;-60
2023/02/21 13:12:00;;;;;;;7.80;3.60;;;;;;;7.15;67.85;97263.44;78085;1297;3053081;-60
2023/02/21 13:14:40;;;;;;;9.10;4.40;;;;;;;7.00;68.97;97256.79;79289;1294;3011402;-60
2023/02/21 13:17:10;;;;;;;11.90;5.60;;;;;;;6.97;68.63;97261.20;78265;1299;3052980;-61
2023/02/21 13:19:44;;;;;;;14.70;6.50;;;;;;;6.84;69.26;97263.49;79259;1299;3016066;-59
2023/02/21 13:22:16;;;;;;;;;;;;;;;6.74;70.04;97266.20;78130;1299;3069172;-60
2023/02/21 13:24:46;;;;;;;13.60;7.10;;;;;;;6.52;71.04;97278.34;79332;1298;3012046;-60
2023/02/21 13:27:45;;;;;;;17.80;7.10;;;;;;;6.51;71.07;97277.57;78226;1299;3056136;-60
2023/02/21 13:30:26;;;;;;;15.40;7.30;;;;;;;6.46;71.31;97276.42;78072;1298;3049955;-60
2023/02/21 13:32:57;;;;;;;14.90;6.30;;;;;;;6.44;70.64;97278.10;78004;1296;3053680;-60
2023/02/21 13:35:37;;;;;;;10.60;4.50;;;;;;;6.40;69.70;97278.08;79232;1299;3013059;-60
2023/02/21 13:38:06;;;;;;;12.30;4.30;;;;;;;6.40;68.02;97276.31;78116;1300;3052989;-60
2023/02/21 13:40:49;;;;;;;9.90;3.40;;;;;;;6.13;67.63;97268.71;79511;1300;3012773;-60
2023/02/21 13:43:25;;;;;;;10.40;4.00;;;;;;;6.28;66.80;97277.45;78003;1298;3052404;-60
2023/02/21 13:45:54;;;;;;;9.70;3.70;;;;;;;6.23;66.35;97283.39;78046;1294;3056769;-60
2023/02/21 13:48:22;;;;;;;7.10;2.90;;;;;;;6.19;66.30;97281.29;79370;1294;3013572;-60
2023/02/21 13:50:57;;;;;;;7.50;3.40;;;;;;;6.17;66.42;97278.77;78695;1297;3011616;-59
2023/02/21 13:53:32;;;;;;;5.00;2.30;;;;;;;6.09;66.92;97273.35;79257;1296;3011686;-60
2023/02/21 13:56:06;;;;;;;7.90;2.80;;;;;;;6.06;66.53;97277.39;78121;1300;3052882;-60
2023/02/21 13:58:38;;;;;;;5.60;2.40;;;;;;;5.97;66.79;97274.24;79237;1300;3011943;-62
2023/02/21 14:01:16;;;;;;;5.60;2.80;;;;;;;5.86;67.28;97271.37;78202;1295;3068672;-60
2023/02/21 14:03:44;;;;;;;4.90;1.70;;;;;;;5.80;67.31;97280.52;78292;1295;3050849;-62
2023/02/21 14:06:11;;;;;;;4.00;2.10;;;;;;;5.78;67.19;97286.58;79325;1299;3013229;-60
2023/02/21 14:08:46;;;;;;;5.80;2.00;;;;;;;5.77;66.99;97297.44;79249;1295;3013116;-60
2023/02/21 14:11:15;;;;;;;4.60;2.00;;;;;;;5.73;67.18;97291.64;78093;1299;3050668;-60
2023/02/21 14:13:58;;;;;;;5.60;2.10;;;;;;;5.79;66.63;97299.55;79341;1299;3013012;-60
2023/02/21 14:16:32;;;;;;;5.10;2.10;;;;;;;5.71;67.63;97301.40;78033;1295;3052638;-61
2023/02/21 14:19:18;;;;;;;8.50;3.10;;;;;;;5.64;68.60;97308.34;79427;1294;3011846;-61
2023/02/21 14:22:03;;;;;;;12.10;3.30;;;;;;;5.33;69.60;97336.98;78018;1300;3051774;-60
2023/02/21 14:24:34;;;;;;;11.70;4.50;;;;;;;5.33;69.70;97315.44;78179;1299;3056881;-60
2023/02/21 14:27:04;;;;;;;7.10;3.20;;;;;;;5.29;69.82;97308.31;79478;1294;3011625;-60
2023/02/21 14:29:55;;;;;;;9.40;4.00;;;;;;;5.28;70.64;97296.60;78073;1295;3051943;-60
2023/02/21 14:32:33;;;;;;;9.50;3.80;;;;;;;5.36;70.95;97284.71;78216;1299;3049925;-60
2023/02/21 14:35:13;;;;;;;10.80;5.10;;;;;;;5.50;70.33;97290.30;78198;1297;3052818;-60
2023/02/21 14:37:53;;;;;;;16.40;5.10;;;;;;;5.45;70.58;97293.39;78082;1299;3052600;-59
2023/02/21 14:40:33;;;;;;;18.50;6.40;;;;;;;5.37;71.28;97293.61;78041;1298;3069751;-61
2023/02/21 14:43:07;;;;;;;12.40;4.80;;;;;;;5.30;71.98;97292.80;78030;1298;3050364;-60
2023/02/21 14:46:21;;;;;;;15.60;5.30;;;;;;;5.41;71.66;97294.70;79313;1294;3011824;-60
2023/02/21 14:49:20;;;;;;;16.00;5.00;;;;;;;5.36;71.71;97298.91;77867;1300;3050070;-59
2023/02/21 14:51:57;;;;;;;7.40;3.00;;;;;;;5.42;71.25;97300.55;78262;1298;3052506;-60
2023/02/21 14:54:49;;;;;;;9.20;3.70;;;;;;;5.28;71.78;97302.67;78282;1297;3051591;-60
2023/02/21 14:57:35;;;;;;;7.70;3.00;;;;;;;5.13;72.45;97299.42;78123;1299;3053101;-60
2023/02/21 15:00:32;;;;;;;7.90;2.40;;;;;;;5.25;71.81;97301.95;78093;1300;3053452;-59
2023/02/21 15:03:37;;;;;;;7.80;2.80;;;;;;;5.14;72.53;97307.30;78012;1295;3070626;-60
2023/02/21 15:06:10;;;;;;;8.50;2.30;;;;;;;5.04;73.17;97322.21;77809;1300;3050820;-60
2023/02/21 15:08:42;;;;;;;6.70;2.10;;;;;;;4.92;74.02;97328.30;79315;1295;3011524;-60
2023/02/21 15:11:29;;;;;;;5.70;2.30;;;;;;;4.91;74.37;97341.43;78202;1297;3049008;-60
2023/02/21 15:14:23;;;;;;;8.30;2.50;;;;;;;4.83;74.33;97350.10;78212;1297;3053428;-60
2023/02/21 15:16:54;;;;;;;4.80;2.30;;;;;;;4.76;74.80;97376.25;77956;1299;3049915;-60
2023/02/21 15:19:25;;;;;;;5.80;2.30;;;;;;;4.77;76.03;97377.41;79268;1299;3011655;-60
2023/02/21 15:22:05;;;;;;;4.10;1.90;;;;;;;5.31;75.33;97375.13;78024;1304;3052652;-60
2023/02/21 15:24:33;;;;;;;8.70;2.70;;;;;;;5.95;73.10;97378.27;78094;1295;3069890;-60
2023/02/21 15:27:09;;;;;;;8.50;2.80;;;;;;;5.63;72.77;97381.34;79254;1294;3014708;-60
2023/02/21 15:29:39;;;;;;;5.00;2.80;;;;;;;5.45;73.23;97385.41;78124;1300;3049631;-60
2023/02/21 15:32:06;;;;;;;10.00;2.90;;;;;;;5.08;74.08;97392.76;79421;1300;3012883;-60
2023/02/21 15:34:39;;;;;;;6.60;3.20;;;;;;;4.97;74.86;97383.15;79238;1298;3013070;-60
2023/02/21 15:37:22;;;;;;;6.70;2.70;;;;;;;4.76;75.30;97400.05;77943;1300;3053117;-59
2023/02/21 15:39:58;;;;;;;8.80;3.30;;;;;;;4.57;76.16;97411.23;78283;1298;3070449;-60
2023/02/21 15:42:26;;;;;;;9.10;3.60;;;;;;;4.44;76.79;97394.61;78196;1299;3050339;-60
2023/02/21 15:44:55;;;;;;;9.40;4.50;;;;;;;4.35;77.31;97394.85;79312;1300;3018381;-60
2023/02/21 15:47:23;;;;;;;14.80;6.10;;;;;;;4.44;76.65;97387.14;79333;1294;3011919;-60
2023/02/21 15:50:23;;;;;;;12.20;6.70;;;;;;;4.35;76.79;97387.41;78218;1298;3050868;-60
2023/02/21 15:52:52;;;;;;;16.00;8.10;;;;;;;4.35;76.95;97395.91;77987;1300;3052599;-60
2023/02/21 15:55:18;;;;;;;21.90;8.80;;;;;;;4.27;77.20;97394.70;79335;1299;3014133;-59
2023/02/21 15:57:46;;;;;;;17.20;6.40;;;;;;;4.43;76.94;97388.07;79436;1296;3012254;-61
2023/02/21 16:00:32;;;;;;;10.30;4.40;;;;;;;4.93;76.10;97402.50;78230;1297;3056696;-60
2023/02/21 16:03:26;;;;;;;8.30;4.70;;;;;;;5.41;73.90;97404.45;78166;1299;3050290;-61
2023/02/21 16:06:10;;;;;;;6.10;3.00;;;;;;;5.05;74.03;97410.48;78067;1300;3053992;-61
2023/02/21 16:08:50;;;;;;;9.40;3.40;;;;;;;4.96;74.14;97415.61;78136;1300;3050644;-60
2023/02/21 16:11:18;;;;;;;7.90;2.90;;;;;;;4.81;74.15;97436.09;78481;1300;3052163;-61
2023/02/21 16:13:44;;;;;;;10.40;3.10;;;;;;;4.53;74.64;97429.33;79762;1300;3013000;-60
2023/02/21 16:16:13;;;;;;;7.50;3.10;;;;;;;4.39;75.39;97441.41;79286;1300;3011547;-60
2023/02/21 16:18:42;;;;;;;8.90;3.50;;;;;;;4.42;75.37;97449.36;78713;1300;3057109;-60
2023/02/21 16:21:22;;;;;;;9.30;3.20;;;;;;;4.37;75.19;97455.20;79203;1300;3011803;-60
2023/02/21 16:23:50;;;;;;;6.90;3.30;;;;;;;4.34;75.44;97452.48;77994;1297;3053507;-60
2023/02/21 16:26:17;;;;;;;11.50;3.80;;;;;;;4.18;76.05;97467.59;79305;1300;3013328;-60
2023/02/21 16:28:44;;;;;;;9.80;4.80;;;;;;;4.20;76.13;97464.66;79325;1300;3011595;-60
2023/02/21 16:31:31;;;;;;;10.40;4.30;;;;;;;4.25;75.91;97468.13;78187;1300;3067666;-60
2023/02/21 16:33:58;;;;;;;11.30;4.90;;;;;;;4.25;75.33;97480.80;78215;1300;3051601;-60
2023/02/21 16:36:29;;;;;;;12.70;5.90;;;;;;;4.20;75.51;97483.58;79424;1297;3013134;-60
2023/02/21 16:38:57;;;;;;;8.40;4.10;;;;;;;4.20;75.86;97489.08;78137;1300;3053279;-59
2023/02/21 16:41:24;;;;;;;6.70;2.90;;;;;;;4.90;74.19;97505.36;79475;1300;3012831;-60
2023/02/21 16:43:51;;;;;;;6.70;2.90;;;;;;;5.25;71.99;97499.48;79443;1299;3014291;-60
2023/02/21 16:46:23;;;;;;;5.80;3.10;;;;;;;5.19;71.58;97501.52;78281;1295;3025193;-60
2023/02/21 16:48:52;;;;;;;11.30;3.30;;;;;;;4.90;72.37;97489.76;79363;1300;3012658;-60
2023/02/21 16:51:20;;;;;;;9.40;4.10;;;;;;;4.89;72.31;97508.42;78110;1299;3057353;-60
2023/02/21 16:53:50;;;;;;;7.30;4.30;;;;;;;4.78;72.53;97502.58;79518;1300;3011560;-60
2023/02/21 16:56:19;;;;;;;11.10;5.00;;;;;;;4.59;73.34;97519.27;78999;1299;3013580;-61
2023/02/21 16:58:47;;;;;;;12.30;5.50;;;;;;;4.46;74.01;97520.83;79444;1299;3018914;-61
2023/02/21 17:01:23;;;;;;;9.60;4.70;;;;;;;4.23;75.10;97519.38;79634;1300;3013010;-60
2023/02/21 17:03:51;;;;;;;10.00;4.40;;;;;;;3.94;76.62;97545.05;78274;1299;3069723;-61
2023/02/21 17:06:20;;;;;;;9.90;4.00;;;;;;;3.84;77.31;97529.02;79363;1300;3012909;-63
2023/02/21 17:08:46;;;;;;;9.50;4.30;;;;;;;3.81;77.49;97542.54;79310;1295;3011659;-61
2023/02/21 17:11:15;;;;;;;11.30;3.70;;;;;;;3.72;78.04;97540.55;78110;1300;3053526;-60
2023/02/21 17:13:41;;;;;;;6.30;3.00;;;;;;;3.75;77.85;97540.52;79379;1300;3013554;-63
2023/02/21 17:16:08;;;;;;;7.10;2.70;;;;;;;3.80;77.94;97544.87;79385;1300;3011970;-62
2023/02/21 17:18:37;;;;;;;8.10;2.70;;;;;;;4.20;77.27;97547.84;78313;1299;3068190;-60
2023/02/21 17:21:04;;;;;;;9.10;3.20;;;;;;;4.71;75.00;97540.69;79390;1296;3015169;-63
2023/02/21 17:23:35;;;;;;;7.90;4.00;;;;;;;4.69;74.44;97546.57;78859;1294;3011944;-65
2023/02/21 17:26:02;;;;;;;8.10;3.80;;;;;;;4.58;74.89;97548.15;79328;1297;3013774;-60
2023/02/21 17:28:39;;;;;;;11.30;4.90;;;;;;;4.51;74.79;97550.88;78218;1297;3051955;-60
2023/02/21 17:31:06;;;;;;;8.50;4.70;;;;;;;4.14;76.22;97559.16;79412;1300;3013718;-63
2023/02/21 17:33:34;;;;;;;9.50;4.70;;;;;;;4.09;76.53;97550.46;79446;1294;3011860;-61
2023/02/21 17:36:02;;;;;;;6.80;3.30;;;;;;;3.95;76.79;97551.86;78294;1299;3051835;-61
2023/02/21 17:38:29;;;;;;;9.00;2.50;;;;;;;3.89;76.94;97557.95;79429;1294;3013257;-63
2023/02/21 17:40:56;;;;;;;5.90;2.70;;;;;;;3.76;77.83;97562.63;79279;1294;3011500;-61
2023/02/21 17:43:24;;;;;;;4.10;1.70;;;;;;;3.63;78.48;97571.55;78194;1298;3049633;-63
2023/02/21 17:45:51;;;;;;;4.20;1.40;;;;;;;3.68;78.40;97569.85;79374;1300;3012893;-61
2023/02/21 17:48:18;;;;;;;5.50;2.00;;;;;;;3.65;78.62;97574.58;79404;1297;3012622;-61
2023/02/21 17:50:46;;;;;;;2.50;0.80;;;;;;;3.80;78.29;97576.19;78205;1298;3052985;-63
2023/02/21 17:53:14;;;;;;;4.70;1.60;;;;;;;4.59;75.96;97579.28;79293;1295;3013585;-60
2023/02/21 17:55:45;;;;;;;4.40;1.90;;;;;;;4.88;74.63;97579.79;78958;1297;3011309;-60
2023/02/21 17:58:13;;;;;;;4.90;1.90;;;;;;;4.96;74.23;97591.40;79432;1295;3013716;-62
2023/02/21 18:00:41;;;;;;;4.00;1.70;;;;;;;4.86;73.53;97586.16;79389;1297;3011659;-61
2023/02/21 18:03:09;;;;;;;2.80;1.40;;;;;;;4.49;74.53;97585.84;78219;1298;3053278;-60
2023/02/21 18:05:36;;;;;;;5.90;1.50;;;;;;;4.30;74.76;97591.42;79464;1295;3013308;-60
2023/02/21 18:08:03;;;;;;;2.40;1.40;;;;;;;4.25;74.79;97590.17;79564;1300;3011691;-62
2023/02/21 18:10:32;;;;;;;3.00;1.50;;;;;;;3.88;76.34;97599.13;78307;1294;3028799;-61
2023/02/21 18:12:59;;;;;;;1.80;1.20;;;;;;;3.80;76.45;97592.84;79304;1297;3013729;-61
2023/02/21 18:15:27;;;;;;;5.30;1.40;;;;;;;3.53;77.96;97595.73;79204;1298;3013137;-60
2023/02/21 18:18:03;;;;;;;5.30;1.90;;;;;;;3.46;78.49;97609.67;77969;1298;3052156;-60
2023/02/21 18:20:30;;;;;;;8.60;2.00;;;;;;;3.43;78.33;97607.06;79134;1295;3011728;-60
2023/02/21 18:22:58;;;;;;;5.10;1.80;;;;;;;3.35;79.19;97611.73;78040;1299;3030011;-60
2023/02/21 18:25:25;;;;;;;3.20;1.80;;;;;;;4.19;78.17;97610.26;79200;1297;3021266;-60
2023/02/21 18:27:52;;;;;;;3.50;1.70;;;;;;;4.52;75.79;97611.52;79220;1299;3012975;-60
2023/02/21 18:30:20;;;;;;;2.70;1.10;;;;;;;4.41;75.18;97613.88;77905;1299;3028911;-60
2023/02/21 18:32:48;;;;;;;4.30;1.50;;;;;;;4.25;75.36;97604.20;79433;1298;3012844;-60
2023/02/21 18:35:15;;;;;;;4.70;1.40;;;;;;;4.27;75.32;97610.34;79270;1300;3011641;-61
2023/02/21 18:37:45;;;;;;;4.00;1.20;;;;;;;4.17;75.19;97610.64;78332;1294;3050379;-61
2023/02/21 18:40:16;;;;;;;1.90;1.10;;;;;;;4.01;75.53;97610.79;79503;1294;3012780;-60
2023/02/21 18:42:44;;;;;;;4.20;1.40;;;;;;;3.84;75.95;97620.80;78112;1300;3049721;-60
2023/02/21 18:45:11;;;;;;;2.70;1.50;;;;;;;3.66;76.71;97615.39;79226;1300;3013213;-60
2023/02/21 18:47:39;;;;;;;2.90;1.40;;;;;;;3.41;78.04;97610.52;79483;1308;3011496;-61
2023/02/21 18:50:07;;;;;;;3.00;1.40;;;;;;;3.34;78.06;97600.33;78035;1300;3052227;-60
2023/02/21 18:52:35;;;;;;;1.90;0.90;;;;;;;3.39;78.61;97613.69;79336;1297;3013237;-60
2023/02/21 18:55:02;;;;;;;3.20;1.40;;;;;;;3.99;76.99;97614.14;79519;1300;3011961;-61
2023/02/21 18:57:31;;;;;;;4.00;1.50;;;;;;;4.07;76.51;97606.39;78092;1300;3048624;-60
2023/02/21 18:59:57;;;;;;;4.40;1.10;;;;;;;4.03;76.03;97608.52;79365;1300;3013145;-60
2023/02/21 19:02:24;;;;;;;4.40;1.50;;;;;;;3.85;76.22;97612.48;79341;1300;3012115;-60
2023/02/21 19:04:52;;;;;;;4.50;1.40;;;;;;;3.70;76.70;97606.60;78058;1300;3053491;-60
2023/02/21 19:07:18;;;;;;;3.10;1.20;;;;;;;3.57;77.01;97615.89;79447;1300;3021126;-60
2023/02/21 19:09:50;;;;;;;2.50;1.10;;;;;;;3.40;77.75;97612.59;78210;1298;3057108;-64
2023/02/21 19:12:17;;;;;;;17.30;1.40;;;;;;;3.40;77.77;97614.66;79336;1297;3013707;-60
2023/02/21 19:14:51;;;;;;;2.70;1.00;;;;;;;3.35;77.91;97616.73;77976;1294;3049627;-60
2023/02/21 19:17:18;;;;;;;0.40;0.20;;;;;;;3.26;78.70;97606.54;79193;1299;3013040;-60
2023/02/21 19:19:45;;;;;;;3.60;1.20;;;;;;;3.70;77.78;97614.94;79191;1299;3011855;-59
2023/02/21 19:22:12;;;;;;;2.80;1.30;;;;;;;4.13;76.47;97615.21;78011;1297;3049931;-61
2023/02/21 19:24:39;;;;;;;6.10;1.30;;;;;;;4.19;75.57;97619.67;79197;1297;3019083;-60
2023/02/21 19:27:07;;;;;;;5.10;1.40;;;;;;;3.77;76.47;97624.71;79132;1294;3013023;-60
2023/02/21 19:29:36;;;;;;;1.70;0.80;;;;;;;3.56;77.15;97621.37;78129;1299;3051240;-60
2023/02/21 19:32:03;;;;;;;3.90;1.20;;;;;;;3.46;77.57;97626.10;79329;1300;3013083;-61
2023/02/21 19:34:29;;;;;;;2.00;0.80;;;;;;;3.53;77.14;97624.48;79228;1298;3011504;-60
2023/02/21 19:36:57;;;;;;;3.10;1.40;;;;;;;3.44;77.45;97622.59;78243;1299;3028230;-60
2023/02/21 19:39:24;;;;;;;3.00;1.10;;;;;;;3.23;78.20;97628.86;79380;1295;3018111;-60
2023/02/21 19:41:51;;;;;;;5.10;1.10;;;;;;;3.12;78.84;97632.48;79354;1300;3011644;-60
2023/02/21 19:44:19;;;;;;;3.60;1.70;;;;;;;3.09;78.83;97632.98;78354;1297;3025900;-60
2023/02/21 19:46:46;;;;;;;7.80;1.60;;;;;;;3.14;78.91;97639.98;79512;1299;3012838;-60
2023/02/21 19:49:17;;;;;;;6.30;1.40;;;;;;;3.21;78.66;97631.39;78221;1299;3068955;-61
2023/02/21 19:51:44;;;;;;;4.00;1.20;;;;;;;3.89;77.12;97627.41;79469;1295;3012761;-60
2023/02/21 19:54:12;;;;;;;4.40;2.00;;;;;;;4.22;75.05;97623.96;79360;1294;3011747;-60
2023/02/21 19:56:40;;;;;;;4.60;1.90;;;;;;;4.33;74.38;97622.42;78136;1299;3055128;-60
2023/02/21 19:59:07;;;;;;;4.70;1.70;;;;;;;4.11;74.75;97608.19;79451;1300;3013661;-60
2023/02/21 20:01:34;;;;;;;5.70;2.20;;;;;;;3.94;75.04;97617.07;79268;1300;3011653;-60
2023/02/21 20:04:02;;;;;;;5.20;1.80;;;;;;;3.83;75.62;97605.79;78134;1294;3029270;-60
2023/02/21 20:06:36;;;;;;;5.30;1.70;;;;;;;3.89;75.12;97608.23;79399;1300;3014179;-61
2023/02/21 20:09:05;;;;;;;8.40;2.30;;;;;;;3.69;75.95;97616.91;78076;1295;3048076;-60
2023/02/21 20:11:39;;;;;;;4.60;2.00;;;;;;;3.54;76.89;97614.39;79600;1294;3011572;-60
2023/02/21 20:14:08;;;;;;;2.80;1.30;;;;;;;3.67;76.06;97617.02;78282;1300;3050545;-60
2023/02/21 20:16:39;;;;;;;7.40;1.80;;;;;;;3.48;76.78;97629.30;79460;1300;3013025;-60
2023/02/21 20:19:07;;;;;;;5.20;2.10;;;;;;;3.30;77.95;97636.06;78127;1300;3070171;-60
2023/02/21 20:21:35;;;;;;;2.40;1.30;;;;;;;3.35;77.70;97634.38;79352;1294;3013091;-60
2023/02/21 20:24:02;;;;;;;4.60;1.50;;;;;;;3.36;77.88;97630.35;79401;1294;3011568;-60
2023/02/21 20:26:30;;;;;;;4.60;1.40;;;;;;;3.89;76.57;97625.92;78252;1294;3053082;-60
2023/02/21 20:28:57;;;;;;;4.10;1.80;;;;;;;4.53;74.12;97649.55;79499;1298;3018601;-60
2023/02/21 20:31:28;;;;;;;8.80;2.00;;;;;;;4.73;72.67;97645.30;79462;1300;3011603;-60
2023/02/21 20:34:01;;;;;;;7.20;1.70;;;;;;;4.36;73.09;97642.67;78158;1298;3069623;-61
2023/02/21 20:36:29;;;;;;;3.30;1.70;;;;;;;4.18;73.65;97633.45;79265;1294;3011751;-60
2023/02/21 20:38:57;;;;;;;2.30;1.60;;;;;;;3.83;74.34;97632.31;78117;1298;3058221;-60
2023/02/21 20:41:33;;;;;;;4.40;2.20;;;;;;;3.60;74.88;97641.67;79493;1298;3013191;-60
2023/02/21 20:44:01;;;;;;;5.60;1.60;;;;;;;3.51;75.42;97646.06;78012;1299;3050573;-60
2023/02/21 20:46:28;;;;;;;3.80;1.50;;;;;;;3.55;75.12;97652.08;79312;1300;3013130;-60
2023/02/21 20:48:57;;;;;;;3.60;1.30;;;;;;;3.39;75.81;97660.98;79278;1299;3011746;-61
2023/02/21 20:51:32;;;;;;;2.30;1.20;;;;;;;3.36;75.95;97669.44;78066;1300;3052513;-60
2023/02/21 20:54:03;;;;;;;4.80;1.50;;;;;;;3.34;76.19;97650.54;78719;1298;3013011;-60
2023/02/21 20:56:34;;;;;;;5.30;2.00;;;;;;;3.30;76.58;97651.79;79515;1295;3011825;-60
2023/02/21 20:59:03;;;;;;;4.80;1.60;;;;;;;3.24;77.11;97679.16;78154;1298;3049501;-60
2023/02/21 21:01:30;;;;;;;3.70;1.50;;;;;;;3.34;77.71;97660.54;79418;1300;3012993;-60
2023/02/21 21:03:57;;;;;;;6.60;2.10;;;;;;;4.10;75.33;97670.30;79288;1295;3011409;-60
2023/02/21 21:06:25;;;;;;;5.00;2.20;;;;;;;4.33;73.70;97671.47;78096;1300;3051705;-61
2023/02/21 21:08:52;;;;;;;4.40;2.20;;;;;;;4.26;73.12;97666.52;79435;1298;3013492;-62
2023/02/21 21:11:20;;;;;;;2.80;1.70;;;;;;;4.14;73.22;97669.71;79440;1299;3013103;-60
2023/02/21 21:13:53;;;;;;;7.70;2.60;;;;;;;3.92;73.66;97660.16;78096;1294;3050777;-61
2023/02/21 21:16:20;;;;;;;8.50;3.30;;;;;;;3.76;74.36;97661.66;79414;1300;3013455;-60
2023/02/21 21:18:47;;;;;;;10.50;3.90;;;;;;;3.67;74.48;97668.63;79353;1299;3011636;-60
2023/02/21 21:21:15;;;;;;;8.20;3.30;;;;;;;3.56;74.61;97666.00;78217;1294;3028903;-60
2023/02/21 21:23:42;;;;;;;8.50;3.20;;;;;;;3.29;75.40;97693.42;79533;1298;3013221;-60
2023/02/21 21:26:10;;;;;;;9.70;3.30;;;;;;;3.22;75.49;97712.84;79472;1298;3012831;-60
2023/02/21 21:28:39;;;;;;;7.10;3.20;;;;;;;3.17;75.83;97704.46;78160;1298;3051117;-61
2023/02/21 21:31:07;;;;;;;7.90;2.60;;;;;;;2.97;76.53;97723.10;79490;1294;3013527;-61
2023/02/21 21:33:36;;;;;;;6.80;2.30;;;;;;;2.90;76.91;97724.89;79246;1294;3011575;-60
2023/02/21 21:36:07;;;;;;;4.30;2.10;;;;;;;2.87;77.44;97715.58;79481;1301;3013118;-60
2023/02/21 21:38:39;;;;;;;3.90;1.80;;;;;;;2.87;77.41;97732.69;78344;1299;3069704;-60
2023/02/21 21:41:12;;;;;;;2.40;1.20;;;;;;;2.89;77.26;97734.97;79559;1294;3011670;-60
2023/02/21 21:43:42;;;;;;;1.80;0.90;;;;;;;3.65;74.90;97727.79;78339;1300;3057478;-60
2023/02/21 21:46:09;;;;;;;2.00;1.00;;;;;;;3.81;73.13;97754.01;79596;1295;3013852;-60
2023/02/21 21:48:42;;;;;;;4.00;1.30;;;;;;;3.77;72.96;97755.98;78796;1299;3011624;-61
2023/02/21 21:51:09;;;;;;;2.80;1.10;;;;;;;3.61;72.67;97767.48;79241;1299;3013243;-60
2023/02/21 21:53:38;;;;;;;1.20;0.70;;;;;;;3.48;72.14;97751.32;78781;1300;3011746;-61
2023/02/21 21:56:06;;;;;;;1.50;1.00;;;;;;;3.41;72.05;97751.20;79383;1299;3014652;-61
2023/02/21 21:58:33;;;;;;;2.00;1.00;;;;;;;3.23;72.72;97748.63;79262;1297;3011415;-61
2023/02/21 22:01:04;;;;;;;3.20;1.00;;;;;;;3.13;72.98;97768.19;78131;1299;3054865;-60
2023/02/21 22:03:37;;;;;;;1.50;0.60;;;;;;;3.12;72.43;97761.02;78881;1297;3013431;-60
2023/02/21 22:06:05;;;;;;;1.90;0.90;;;;;;;3.03;71.80;97767.80;79400;1300;3013480;-61
2023/02/21 22:08:32;;;;;;;1.50;0.80;;;;;;;2.96;71.75;97776.95;79599;1294;3011622;-61
2023/02/21 22:11:00;;;;;;;1.50;0.70;;;;;;;2.88;72.51;97780.35;78471;1298;3051686;-61
2023/02/21 22:13:32;;;;;;;3.20;1.40;;;;;;;2.84;72.84;97774.65;80506;1298;3018311;-61
2023/02/21 22:16:02;;;;;;;2.70;0.80;;;;;;;2.82;72.77;97793.12;78357;1300;3052809;-61
2023/02/21 22:18:30;;;;;;;1.90;0.80;;;;;;;2.82;73.10;97810.61;79660;1299;3013643;-61
2023/02/21 22:20:57;;;;;;;1.60;0.80;;;;;;;2.80;73.33;97822.30;79619;1295;3013267;-61
2023/02/21 22:23:26;;;;;;;3.00;0.70;;;;;;;2.83;73.37;97819.52;78371;1299;3049699;-61
2023/02/21 22:25:52;;;;;;;1.20;0.80;;;;;;;2.91;73.18;97829.67;79688;1300;3021164;-60
2023/02/21 22:28:19;;;;;;;2.00;0.90;;;;;;;2.80;73.12;97835.10;79446;1299;3012430;-61
2023/02/21 22:30:47;;;;;;;2.30;1.00;;;;;;;2.73;72.92;97830.11;78163;1300;3029670;-61
2023/02/21 22:33:17;;;;;;;1.10;0.80;;;;;;;2.77;72.74;97837.35;79493;1300;3013926;-61
2023/02/21 22:35:46;;;;;;;1.60;0.80;;;;;;;2.88;72.23;97831.71;79012;1299;3011638;-61
2023/02/21 22:38:14;;;;;;;2.30;1.00;;;;;;;2.88;72.40;97832.58;79653;1294;3014006;-61
2023/02/21 22:40:41;;;;;;;1.70;0.80;;;;;;;2.78;72.36;97834.14;79496;1298;3011908;-61
2023/02/21 22:43:09;;;;;;;2.60;1.00;;;;;;;2.82;71.86;97833.74;78621;1301;3051842;-61
2023/02/21 22:45:37;;;;;;;1.70;0.70;;;;;;;2.78;71.97;97843.52;79755;1299;3013166;-61
2023/02/21 22:48:05;;;;;;;2.60;1.00;;;;;;;2.67;72.30;97846.34;79574;1299;3011520;-60
2023/02/21 22:50:35;;;;;;;0.60;0.50;;;;;;;2.64;72.32;97848.39;78503;1296;3050184;-61
2023/02/21 22:53:06;;;;;;;2.00;0.60;;;;;;;2.62;71.64;97850.25;79644;1300;3011704;-61
2023/02/21 22:55:35;;;;;;;0.90;0.50;;;;;;;2.62;71.15;97848.53;78372;1300;3048694;-61
2023/02/21 22:58:04;;;;;;;1.30;0.90;;;;;;;2.56;71.10;97851.79;79568;1300;3013087;-60
2023/02/21 23:00:33;;;;;;;1.30;0.80;;;;;;;2.52;71.14;97855.77;79177;1300;3013870;-61
2023/02/21 23:03:11;;;;;;;1.80;0.80;;;;;;;2.50;71.34;97855.02;79590;1298;3013547;-61
2023/02/21 23:05:43;;;;;;;2.00;0.80;;;;;;;2.52;71.39;97855.09;78562;1298;3057657;-63
2023/02/21 23:08:12;;;;;;;1.00;0.80;;;;;;;2.50;71.69;97870.05;79682;1299;3011691;-62
2023/02/21 23:10:40;;;;;;;3.70;0.70;;;;;;;2.58;71.63;97858.43;78231;1302;3051914;-61
2023/02/21 23:13:15;;;;;;;2.70;1.00;;;;;;;2.61;71.50;97859.13;79485;1301;3013072;-60
2023/02/21 23:15:43;;;;;;;1.70;0.70;;;;;;;2.51;72.41;97872.96;78123;1308;3052467;-61
2023/02/21 23:18:19;;;;;;;5.10;1.90;;;;;;;2.51;72.50;97862.90;79894;1298;3012866;-64
2023/02/21 23:20:54;;;;;;;4.20;1.30;;;;;;;2.39;72.46;97866.52;78535;1294;3057294;-60
2023/02/21 23:23:26;;;;;;;2.40;1.30;;;;;;;2.37;72.96;97866.42;79005;1295;3013421;-60
2023/02/21 23:25:55;;;;;;;2.30;1.00;;;;;;;2.44;72.76;97868.45;79546;1301;3011851;-60
2023/02/21 23:28:23;;;;;;;2.60;1.40;;;;;;;2.37;72.90;97887.17;78423;1296;3053258;-60
2023/02/21 23:30:51;;;;;;;1.70;1.00;;;;;;;2.39;72.89;97883.09;79707;1308;3011901;-60
2023/02/21 23:33:21;;;;;;;3.40;0.90;;;;;;;2.43;72.18;97888.23;79595;1300;3013224;-60
2023/02/21 23:35:50;;;;;;;1.30;0.60;;;;;;;2.26;71.71;97910.89;78439;1296;3069156;-61
2023/02/21 23:38:17;;;;;;;1.10;0.70;;;;;;;2.24;70.95;97890.59;79782;1300;3012759;-61
2023/02/21 23:40:54;;;;;;;0.90;0.60;;;;;;;2.17;70.62;97911.70;78507;1300;3049045;-60
2023/02/21 23:43:29;;;;;;;0.70;0.60;;;;;;;2.26;70.17;97903.65;79568;1300;3012223;-60
2023/02/21 23:45:57;;;;;;;2.40;0.70;;;;;;;2.25;70.59;97908.86;78577;1300;3049965;-61
2023/02/21 23:48:24;;;;;;;1.40;0.70;;;;;;;2.32;70.66;97902.29;79471;1300;3013587;-61
2023/02/21 23:50:50;;;;;;;1.40;0.80;;;;;;;2.28;70.94;97914.58;79585;1300;3011839;-61